Terminal Aerodrome Forecast
Issued by NWS Flagstaff, AZ

Home | Current Version | Previous Version | Text Only | Print | Product List | Glossary On
Versions: 1 2 3 4 5 6 7 8 9 10 11 12 13 14 15 16 17
000
FTUS45 KFGZ 141100
TAFFLG
TAF
KFLG 141122Z 1412/1512 VRB03KT P6SM SCT060 BKN100
     FM141700 VRB06KT P6SM SCT070 BKN090
      TEMPO 1419/1423 VRB10G20KT 5SM TSRA BKN050CB
     FM150200 VRB05KT P6SM SCT060 BKN100=

USA.gov is the U.S. government's official web portal to all federal, state and local government web resources and services.